Time;durP1;ratioP1;P1;durP2;ratioP2;P2;SDS_P1;SDS_P2;PMS_P1;PMS_P2;Temp;Humidity;BMP_temperature;BMP_pressure;BME280_temperature;BME280_humidity;BME280_pressure;Samples;Min_cycle;Max_cycle;Signal;HPM_P1;HPM_P2
2022/05/26 00:02:49;;;;;;;0.22;0.20;;;17.70;50.40;19.70;94402.00;;;;10356176;28;45760;-62
2022/05/26 00:08:11;;;;;;;0.20;0.10;;;17.60;50.40;19.70;94404.00;;;;10355817;28;45125;-62
2022/05/26 00:13:31;;;;;;;0.22;0.10;;;17.60;50.40;19.70;94407.00;;;;10354844;28;45177;-62
2022/05/26 00:18:53;;;;;;;0.50;0.13;;;17.60;51.00;19.70;94400.00;;;;10355270;28;45223;-62
2022/05/26 00:24:15;;;;;;;0.30;0.10;;;17.60;50.40;19.70;94389.00;;;;10355655;28;45161;-62
2022/05/26 00:29:35;;;;;;;0.47;0.13;;;17.60;50.40;19.70;94396.00;;;;10355055;28;45136;-62
2022/05/26 00:34:57;;;;;;;0.10;0.10;;;17.60;50.40;19.70;94417.00;;;;10355483;28;45200;-62
2022/05/26 00:40:17;;;;;;;0.30;0.13;;;17.60;50.40;19.60;94408.00;;;;10354768;28;45168;-63
2022/05/26 00:45:42;;;;;;;0.45;0.10;;;17.60;50.40;19.70;94405.00;;;;10354895;28;45465;-62
2022/05/26 00:51:05;;;;;;;0.15;0.10;;;17.60;50.40;19.60;94405.00;;;;10355039;28;45316;-63
2022/05/26 00:56:32;;;;;;;0.10;0.10;;;17.60;50.40;19.60;94410.00;;;;10354746;28;45297;-62
2022/05/26 01:01:53;;;;;;;0.65;0.10;;;17.60;50.40;19.60;94409.00;;;;10349231;28;45247;-63
2022/05/26 01:07:20;;;;;;;0.20;0.10;;;17.50;50.20;19.60;94419.00;;;;10352561;28;45433;-63
2022/05/26 01:12:41;;;;;;;0.75;0.17;;;17.60;50.20;19.60;94402.00;;;;10354295;28;45256;-62
2022/05/26 01:18:10;;;;;;;0.17;0.10;;;17.50;50.20;19.60;94421.00;;;;10353596;28;45355;-62
2022/05/26 01:24:28;;;;;;;0.20;0.10;;;17.60;50.30;19.60;94416.00;;;;10354158;28;45363;-62
2022/05/26 01:30:19;;;;;;;0.10;0.10;;;17.60;50.20;19.60;94413.00;;;;10361076;28;45206;-62
2022/05/26 01:35:54;;;;;;;0.85;0.15;;;17.50;50.20;19.60;94422.00;;;;10360704;28;45216;-62
2022/05/26 01:41:36;;;;;;;0.47;0.20;;;17.50;50.20;19.60;94413.00;;;;10360839;28;45110;-62
2022/05/26 01:47:03;;;;;;;0.25;0.10;;;17.50;50.20;19.60;94421.00;;;;10360308;28;45703;-62
2022/05/26 01:52:33;;;;;;;0.73;0.13;;;17.50;50.20;19.60;94413.00;;;;10360699;28;45201;-63
2022/05/26 01:57:58;;;;;;;0.40;0.15;;;17.50;50.20;19.50;94396.00;;;;10359771;28;45242;-62
2022/05/26 02:03:23;;;;;;;0.40;0.10;;;17.50;50.10;19.50;94414.00;;;;10360198;28;45353;-62
2022/05/26 02:08:50;;;;;;;0.52;0.30;;;17.50;50.10;19.50;94415.00;;;;10359389;28;45212;-63
2022/05/26 02:14:16;;;;;;;0.30;0.10;;;17.50;50.10;19.50;94393.00;;;;10359753;28;45202;-62
2022/05/26 02:19:42;;;;;;;0.10;0.10;;;17.50;50.10;19.50;94411.00;;;;10359083;28;45124;-62
2022/05/26 02:25:09;;;;;;;0.10;0.10;;;17.50;50.10;19.50;94408.00;;;;10359387;28;45878;-62
2022/05/26 02:30:36;;;;;;;0.52;0.10;;;17.50;50.10;19.50;94402.00;;;;10359223;28;45766;-63
2022/05/26 02:35:58;;;;;;;0.13;0.10;;;17.50;50.10;19.50;94414.00;;;;10357549;28;45129;-62
2022/05/26 02:41:21;;;;;;;0.30;0.10;;;17.50;50.10;19.50;94415.00;;;;10359012;28;45214;-63
2022/05/26 02:46:56;;;;;;;0.50;0.20;;;17.50;50.10;19.50;94422.00;;;;10358243;28;45942;-62
2022/05/26 02:52:26;;;;;;;0.30;0.17;;;17.50;50.80;19.50;94421.00;;;;10358770;28;45313;-62
2022/05/26 02:58:11;;;;;;;0.40;0.10;;;17.50;50.10;19.50;94417.00;;;;10358009;28;45234;-62
2022/05/26 03:03:37;;;;;;;0.40;0.15;;;17.50;50.10;19.50;94408.00;;;;10358254;28;45691;-62
2022/05/26 03:09:01;;;;;;;0.20;0.10;;;17.50;50.10;19.50;94421.00;;;;10357693;28;45108;-62
2022/05/26 03:14:25;;;;;;;1.08;0.17;;;17.40;50.10;19.50;94432.00;;;;10357815;28;45890;-62
2022/05/26 03:19:46;;;;;;;0.22;0.20;;;17.40;50.00;19.50;94439.00;;;;10357271;28;45113;-63
2022/05/26 03:25:08;;;;;;;0.10;0.10;;;17.40;50.10;19.50;94440.00;;;;10357463;28;45119;-62
2022/05/26 03:30:30;;;;;;;0.43;0.10;;;17.40;50.10;19.50;94433.00;;;;10357086;28;45143;-62
2022/05/26 03:41:32;;;;;;;0.10;0.10;;;17.40;50.00;19.50;94451.00;;;;10357173;28;45352;-62
2022/05/26 03:46:54;;;;;;;0.10;0.10;;;17.40;50.00;19.50;94449.00;;;;10355837;28;45221;-62
2022/05/26 03:52:14;;;;;;;0.40;0.20;;;17.40;50.10;19.40;94456.00;;;;10356165;28;45276;-62
2022/05/26 03:57:35;;;;;;;0.32;0.10;;;17.40;50.00;19.50;94447.00;;;;10356213;28;45194;-62
2022/05/26 04:02:57;;;;;;;0.20;0.10;;;17.40;50.10;19.40;94464.00;;;;10356298;28;45197;-63
2022/05/26 04:08:17;;;;;;;0.85;0.17;;;17.40;50.00;19.50;94469.00;;;;10355741;28;45187;-62
2022/05/26 04:13:37;;;;;;;0.25;0.20;;;17.40;49.90;19.50;94466.00;;;;10356028;28;45193;-62
2022/05/26 04:18:59;;;;;;;0.10;0.03;;;17.50;49.90;19.60;94474.00;;;;10355408;28;45191;-62
2022/05/26 04:24:20;;;;;;;0.05;0.00;;;17.50;49.80;19.60;94486.00;;;;10355739;28;45849;-62
2022/05/26 04:29:41;;;;;;;0.25;0.10;;;17.60;49.70;19.70;94490.00;;;;10355353;28;45356;-62
2022/05/26 04:35:03;;;;;;;0.45;0.10;;;17.60;49.60;19.70;94493.00;;;;10355488;28;45179;-62
2022/05/26 04:40:24;;;;;;;0.10;0.00;;;17.60;49.50;19.70;94487.00;;;;10354301;28;45218;-63
2022/05/26 04:45:45;;;;;;;0.10;0.10;;;17.60;49.50;19.70;94479.00;;;;10354353;28;45179;-62
2022/05/26 04:51:06;;;;;;;0.50;0.10;;;17.70;49.40;19.80;94493.00;;;;10354900;28;45110;-62
2022/05/26 04:56:27;;;;;;;0.82;0.20;;;17.70;49.40;19.80;94504.00;;;;10354331;28;45179;-62
2022/05/26 05:01:48;;;;;;;0.40;0.10;;;17.70;49.30;19.80;94509.00;;;;10353900;28;45174;-62
2022/05/26 05:07:10;;;;;;;0.10;0.10;;;17.80;49.30;19.80;94509.00;;;;10353853;28;45143;-62
2022/05/26 05:12:31;;;;;;;0.57;0.10;;;17.80;49.20;19.80;94500.00;;;;10354157;28;45245;-63
2022/05/26 05:17:51;;;;;;;0.28;0.10;;;17.80;49.20;19.90;94511.00;;;;10313065;28;45842;-63
2022/05/26 05:23:13;;;;;;;0.20;0.10;;;17.80;49.10;19.90;94514.00;;;;10313373;28;45175;-62
2022/05/26 05:28:38;;;;;;;0.50;0.10;;;17.80;49.10;19.90;94527.00;;;;10312761;28;45742;-63
2022/05/26 05:34:01;;;;;;;0.20;0.10;;;17.90;49.10;19.90;94530.00;;;;10312970;28;45189;-62
2022/05/26 05:39:25;;;;;;;0.40;0.10;;;17.90;49.10;19.90;94528.00;;;;10312418;28;45783;-62
2022/05/26 05:44:45;;;;;;;0.00;0.00;;;17.90;49.00;19.90;94521.00;;;;10312830;28;45284;-62
2022/05/26 05:50:07;;;;;;;5.35;0.20;;;17.90;49.10;19.90;94521.00;;;;10312315;28;45261;-62
2022/05/26 05:55:30;;;;;;;0.57;0.10;;;17.80;49.00;19.90;94507.00;;;;10311305;28;45166;-62
2022/05/26 06:00:51;;;;;;;0.25;0.20;;;17.90;49.00;19.90;94529.00;;;;10312311;28;45227;-62
2022/05/26 06:06:11;;;;;;;0.30;0.10;;;17.90;49.00;19.90;94540.00;;;;10311417;28;45508;-62
2022/05/26 06:11:33;;;;;;;0.08;0.00;;;17.90;49.00;19.90;94530.00;;;;10342478;28;45715;-62
2022/05/26 06:16:54;;;;;;;0.40;0.10;;;17.90;49.00;19.90;94543.00;;;;10358515;28;45220;-63
2022/05/26 06:22:18;;;;;;;0.10;0.10;;;17.90;49.00;19.90;94553.00;;;;10358190;28;45187;-62
2022/05/26 06:38:57;;;;;;;0.20;0.10;;;17.90;49.00;20.00;94562.00;;;;10317506;28;45671;-62
2022/05/26 06:44:19;;;;;;;0.00;0.00;;;17.90;48.90;20.00;94563.00;;;;10318130;28;45304;-62
2022/05/26 06:49:42;;;;;;;0.65;0.10;;;17.90;48.90;20.00;94550.00;;;;10316221;28;45133;-62
2022/05/26 06:55:06;;;;;;;0.43;0.00;;;17.90;48.90;20.00;94561.00;;;;10316604;28;45191;-63
2022/05/26 07:00:28;;;;;;;0.10;0.10;;;17.90;48.90;20.00;94560.00;;;;10317040;28;45140;-63
2022/05/26 07:05:49;;;;;;;0.68;0.08;;;17.90;48.90;20.00;94557.00;;;;10316699;28;45215;-62
2022/05/26 07:11:10;;;;;;;0.20;0.10;;;17.90;49.00;20.00;94566.00;;;;10317305;28;45107;-62
2022/05/26 07:16:32;;;;;;;0.30;0.10;;;17.90;48.90;20.00;94578.00;;;;10316355;28;45907;-63
2022/05/26 07:21:53;;;;;;;0.10;0.10;;;17.90;48.90;20.00;94579.00;;;;10316292;28;45805;-63
2022/05/26 07:27:13;;;;;;;0.98;0.20;;;17.90;49.00;20.00;94573.00;;;;10341802;28;45233;-63
2022/05/26 07:32:35;;;;;;;0.60;0.10;;;17.90;49.00;20.10;94584.00;;;;10355270;28;45740;-62
2022/05/26 07:43:35;;;;;;;1.45;0.20;;;18.00;49.00;20.10;94584.00;;;;10356126;28;45734;-62
2022/05/26 07:48:57;;;;;;;0.70;0.20;;;18.10;49.00;19.90;94591.00;;;;10354839;28;45491;-62
2022/05/26 07:54:18;;;;;;;1.08;0.20;;;17.80;47.20;20.00;94598.00;;;;10318057;28;45410;-62
2022/05/26 07:59:38;;;;;;;1.20;0.30;;;17.90;47.90;20.10;94582.00;;;;10352088;28;45203;-62
2022/05/26 08:05:00;;;;;;;1.05;0.20;;;18.00;48.10;20.10;94587.00;;;;10322732;28;45210;-63
2022/05/26 08:10:21;;;;;;;3.10;0.40;;;18.00;48.00;20.10;94585.00;;;;10355062;28;45322;-63
2022/05/26 08:15:42;;;;;;;2.85;0.30;;;18.00;48.20;20.10;94592.00;;;;10354830;28;45262;-63
2022/05/26 08:21:08;;;;;;;1.50;0.20;;;18.00;48.20;20.00;94589.00;;;;10354935;28;45658;-61
2022/05/26 08:26:30;;;;;;;2.53;0.32;;;17.90;48.40;20.00;94608.00;;;;10354671;28;45230;-64
2022/05/26 08:31:51;;;;;;;0.95;0.20;;;17.90;48.60;20.00;94601.00;;;;10354018;28;45907;-63
2022/05/26 08:37:15;;;;;;;4.20;0.40;;;17.90;48.70;20.00;94604.00;;;;10352838;28;45245;-62
2022/05/26 08:42:37;;;;;;;1.83;0.30;;;17.90;48.70;19.90;94613.00;;;;10354787;28;45361;-63
2022/05/26 08:47:58;;;;;;;1.80;0.30;;;17.80;48.70;19.90;94602.00;;;;10353719;28;45215;-63
2022/05/26 08:53:27;;;;;;;1.65;0.38;;;17.80;48.70;19.90;94608.00;;;;10354245;28;45113;-62
2022/05/26 08:58:50;;;;;;;2.33;0.40;;;17.80;48.80;19.90;94609.00;;;;10353843;28;45163;-63
2022/05/26 09:04:11;;;;;;;1.27;0.30;;;17.80;48.80;19.90;94606.00;;;;10353332;28;45666;-61
2022/05/26 09:15:19;;;;;;;0.75;0.25;;;17.80;48.90;19.90;94631.00;;;;10353435;28;45159;-63
2022/05/26 09:20:44;;;;;;;1.15;0.30;;;17.80;49.00;19.90;94631.00;;;;10348383;28;45861;-63
2022/05/26 09:26:08;;;;;;;2.28;0.30;;;17.80;49.10;19.90;94620.00;;;;10346522;28;45304;-65
2022/05/26 09:31:33;;;;;;;2.00;0.40;;;17.80;49.20;19.90;94635.00;;;;10350187;28;45411;-65
2022/05/26 09:36:59;;;;;;;1.27;0.40;;;17.70;49.10;19.80;94609.00;;;;10351508;28;45229;-63
2022/05/26 09:42:29;;;;;;;0.47;0.20;;;17.70;49.10;19.80;94641.00;;;;10352575;28;45111;-64
2022/05/26 09:47:54;;;;;;;0.85;0.20;;;17.70;49.20;19.80;94644.00;;;;10356667;28;45781;-63
2022/05/26 09:53:28;;;;;;;0.93;0.30;;;17.70;49.30;19.80;94645.00;;;;10359731;28;45170;-63
2022/05/26 09:58:50;;;;;;;0.80;0.20;;;17.70;49.30;19.80;94639.00;;;;10358861;28;45133;-62
2022/05/26 10:04:24;;;;;;;0.17;0.10;;;17.70;49.20;19.80;94636.00;;;;10359221;28;45218;-64
2022/05/26 10:09:55;;;;;;;1.38;0.40;;;17.70;49.30;19.80;94638.00;;;;10358619;28;45240;-63
2022/05/26 10:15:31;;;;;;;1.95;0.30;;;17.70;49.30;19.80;94648.00;;;;10359215;28;45169;-66
2022/05/26 10:21:01;;;;;;;2.05;0.40;;;17.70;49.60;19.80;94642.00;;;;10358941;28;45405;-67
2022/05/26 10:26:31;;;;;;;1.10;0.20;;;17.70;49.50;19.80;94631.00;;;;10358755;28;45103;-67
2022/05/26 10:32:11;;;;;;;0.40;0.20;;;17.70;49.40;19.80;94650.00;;;;10358772;28;45291;-67
2022/05/26 10:37:48;;;;;;;1.58;0.30;;;17.70;49.50;19.80;94648.00;;;;10357941;28;45345;-66
2022/05/26 10:43:15;;;;;;;1.20;0.30;;;17.70;49.60;19.80;94649.00;;;;10358206;28;45146;-67
2022/05/26 10:48:42;;;;;;;1.05;0.20;;;17.60;49.50;19.80;94643.00;;;;10357438;28;45191;-67
2022/05/26 10:54:06;;;;;;;;;;;17.60;49.60;19.80;94640.00;;;;10358876;28;45182;-67
2022/05/26 10:59:34;;;;;;;0.80;0.28;;;17.70;49.70;19.80;94634.00;;;;10355182;28;45479;-67
2022/05/26 11:05:04;;;;;;;2.10;0.20;;;17.70;49.60;19.80;94642.00;;;;10317130;28;45411;-67
2022/05/26 11:10:31;;;;;;;2.13;0.25;;;17.70;49.70;19.70;94629.00;;;;10317042;28;45152;-66
2022/05/26 11:21:38;;;;;;;1.08;0.20;;;17.70;49.70;19.70;94625.00;;;;10317040;28;45500;-67
2022/05/26 11:27:05;;;;;;;0.73;0.20;;;17.70;49.70;19.70;94628.00;;;;10316000;28;45233;-67
2022/05/26 11:38:09;;;;;;;1.45;0.20;;;17.60;49.70;19.70;94625.00;;;;10298281;28;45782;-67
2022/05/26 11:43:35;;;;;;;0.90;0.30;;;17.60;50.20;19.70;94633.00;;;;10315897;28;45918;-67
2022/05/26 11:48:55;;;;;;;1.30;0.30;;;17.60;50.30;19.70;94641.00;;;;10312237;28;45333;-67
2022/05/26 11:55:08;;;;;;;1.15;0.30;;;17.60;50.00;19.70;94627.00;;;;10313054;28;45545;-66
2022/05/26 12:00:43;;;;;;;0.85;0.30;;;17.60;49.90;19.70;94626.00;;;;10315758;28;45192;-67
2022/05/26 12:06:15;;;;;;;1.95;0.30;;;17.60;50.10;19.70;94628.00;;;;10346029;28;45682;-67
2022/05/26 12:12:01;;;;;;;0.70;0.20;;;17.60;50.00;19.70;94634.00;;;;10335210;28;45733;-67
2022/05/26 12:17:42;;;;;;;0.65;0.20;;;17.60;49.90;19.70;94619.00;;;;10314604;28;45782;-67
2022/05/26 12:23:25;;;;;;;1.13;0.30;;;17.60;50.10;19.70;94629.00;;;;10331400;28;45266;-67
2022/05/26 12:28:47;;;;;;;2.10;0.30;;;17.60;50.70;19.70;94637.00;;;;10353809;28;45192;-67
2022/05/26 12:34:20;;;;;;;0.70;0.17;;;17.70;50.20;19.80;94622.00;;;;10314403;28;45167;-67
2022/05/26 12:40:40;;;;;;;0.50;0.10;;;17.70;49.90;19.80;94633.00;;;;10313417;28;45121;-67
2022/05/26 12:46:26;;;;;;;0.50;0.20;;;17.70;50.00;19.80;94631.00;;;;10345614;28;45300;-67
2022/05/26 12:51:46;;;;;;;1.00;0.17;;;17.70;50.10;19.80;94631.00;;;;10354954;28;46003;-66
2022/05/26 12:57:10;;;;;;;0.55;0.10;;;17.70;50.20;19.80;94632.00;;;;10354109;28;45293;-66
2022/05/26 13:02:32;;;;;;;2.00;0.28;;;17.70;50.20;19.80;94614.00;;;;10354237;28;45156;-67
2022/05/26 13:07:54;;;;;;;1.83;0.20;;;17.70;50.20;19.80;94619.00;;;;10354180;28;45145;-65
2022/05/26 13:13:21;;;;;;;0.10;0.10;;;17.70;50.10;19.80;94606.00;;;;10354472;28;45231;-66
2022/05/26 13:18:43;;;;;;;;;;;17.70;50.20;19.90;94609.00;;;;10354838;28;45859;-65
2022/05/26 13:24:05;;;;;;;0.50;0.20;;;17.80;50.10;19.90;94614.00;;;;10367473;28;45198;-64
2022/05/26 13:29:27;;;;;;;0.52;0.20;;;17.90;50.10;20.00;94607.00;;;;10367232;28;45312;-64
2022/05/26 13:34:52;;;;;;;0.85;0.30;;;17.90;50.10;20.00;94592.00;;;;10367740;28;45791;-65
2022/05/26 13:40:17;;;;;;;0.55;0.20;;;17.90;50.00;20.00;94617.00;;;;10366528;28;45702;-64
2022/05/26 13:45:38;;;;;;;1.35;0.20;;;17.90;50.00;19.90;94608.00;;;;10367045;28;45813;-65
2022/05/26 13:51:08;;;;;;;0.47;0.10;;;17.80;50.10;19.90;94590.00;;;;10366976;28;45115;-65
2022/05/26 13:56:32;;;;;;;1.38;0.40;;;17.90;50.20;19.90;94599.00;;;;10366329;28;45230;-65
2022/05/26 14:01:56;;;;;;;1.10;0.20;;;17.90;50.20;19.90;94579.00;;;;10367149;28;45860;-65
2022/05/26 14:07:33;;;;;;;1.08;0.35;;;17.80;50.30;19.90;94592.00;;;;10366481;28;45159;-65
2022/05/26 14:13:07;;;;;;;0.43;0.10;;;17.80;50.20;19.90;94572.00;;;;10366716;28;45175;-64
2022/05/26 14:18:37;;;;;;;0.43;0.20;;;17.80;50.20;19.90;94582.00;;;;10365989;28;45313;-65
2022/05/26 14:24:04;;;;;;;0.73;0.20;;;17.80;50.20;19.90;94572.00;;;;10366489;28;45781;-65
2022/05/26 14:29:37;;;;;;;1.80;0.30;;;17.80;50.20;20.00;94582.00;;;;10365831;28;45782;-65
2022/05/26 14:35:02;;;;;;;1.70;0.57;;;17.90;50.10;20.00;94575.00;;;;10357988;28;45197;-63
2022/05/26 14:40:24;;;;;;;1.83;0.20;;;17.90;50.30;20.10;94565.00;;;;10357854;28;45797;-63
2022/05/26 14:45:44;;;;;;;0.35;0.22;;;17.90;50.10;20.10;94571.00;;;;10358579;28;45675;-64
2022/05/26 14:51:05;;;;;;;2.20;0.47;;;18.00;50.10;20.10;94581.00;;;;10357445;28;45858;-62
2022/05/26 14:56:27;;;;;;;1.02;0.20;;;18.00;50.20;20.10;94576.00;;;;10355637;28;45450;-63
2022/05/26 15:01:48;;;;;;;1.20;0.40;;;18.00;50.20;20.10;94572.00;;;;10317816;28;45898;-63
2022/05/26 15:07:09;;;;;;;1.02;0.20;;;18.00;50.30;20.10;94571.00;;;;10313608;28;45743;-62
2022/05/26 15:12:32;;;;;;;3.10;0.30;;;18.00;50.30;20.10;94570.00;;;;10312965;28;45942;-63
2022/05/26 15:17:52;;;;;;;1.02;0.28;;;18.00;50.30;20.10;94562.00;;;;10315744;28;45163;-62
2022/05/26 15:23:13;;;;;;;0.70;0.20;;;18.00;50.00;20.10;94575.00;;;;10316329;28;45118;-62
2022/05/26 15:28:35;;;;;;;1.92;0.30;;;18.00;50.40;20.20;94560.00;;;;10327814;28;45158;-63
2022/05/26 15:33:55;;;;;;;0.63;0.20;;;18.00;50.60;20.20;94568.00;;;;10357187;28;45261;-61
2022/05/26 15:39:16;;;;;;;1.20;0.30;;;18.10;50.90;20.30;94582.00;;;;10356532;28;45739;-63
2022/05/26 15:44:39;;;;;;;0.88;0.30;;;18.10;50.50;20.30;94570.00;;;;10356671;28;45250;-63
2022/05/26 15:50:00;;;;;;;0.38;0.20;;;18.20;50.60;20.30;94580.00;;;;10355674;28;45793;-63
2022/05/26 15:55:20;;;;;;;1.40;0.30;;;18.20;50.50;20.40;94572.00;;;;10356328;28;45297;-62
2022/05/26 16:00:43;;;;;;;2.08;0.30;;;18.30;50.80;20.40;94576.00;;;;10355796;28;45770;-64
2022/05/26 16:06:03;;;;;;;3.17;0.40;;;18.30;50.70;20.40;94572.00;;;;10314682;28;45774;-64
2022/05/26 16:11:25;;;;;;;3.70;0.40;;;18.30;50.80;20.30;94567.00;;;;10313583;28;45246;-64
2022/05/26 16:16:46;;;;;;;1.08;0.20;;;18.30;50.60;20.30;94563.00;;;;10314371;28;45429;-64
2022/05/26 16:22:07;;;;;;;1.05;0.40;;;18.30;50.50;20.40;94563.00;;;;10314337;28;45699;-63
2022/05/26 16:27:29;;;;;;;2.25;0.38;;;18.30;50.50;20.40;94566.00;;;;10347170;28;45501;-62
2022/05/26 16:32:54;;;;;;;0.85;0.30;;;18.30;50.50;20.50;94543.00;;;;10354750;28;45280;-62
2022/05/26 16:38:15;;;;;;;1.25;0.30;;;18.40;50.40;20.50;94563.00;;;;10353698;28;45902;-62
2022/05/26 16:43:36;;;;;;;1.00;0.43;;;18.40;50.30;20.50;94559.00;;;;10353533;28;45282;-62
2022/05/26 16:48:58;;;;;;;1.80;0.52;;;18.40;50.40;20.50;94566.00;;;;10353545;28;45455;-62
2022/05/26 16:54:24;;;;;;;1.00;0.43;;;18.40;50.10;20.60;94552.00;;;;10349770;28;45433;-62
2022/05/26 16:59:44;;;;;;;1.05;0.55;;;18.50;50.30;20.60;94562.00;;;;10350488;28;45755;-63
2022/05/26 17:05:09;;;;;;;0.95;0.30;;;18.50;50.20;20.60;94558.00;;;;10354193;28;45117;-63
2022/05/26 17:10:32;;;;;;;1.95;0.30;;;18.50;50.20;20.60;94557.00;;;;10352933;28;45268;-65
2022/05/26 17:21:41;;;;;;;2.05;0.40;;;18.50;50.10;20.60;94542.00;;;;10353439;28;45782;-64
2022/05/26 17:27:05;;;;;;;0.98;0.30;;;18.60;49.90;20.60;94553.00;;;;10353113;28;45403;-63
2022/05/26 17:32:25;;;;;;;1.55;0.50;;;18.60;50.20;20.60;94554.00;;;;10350888;28;45511;-62
2022/05/26 17:37:48;;;;;;;0.60;0.20;;;18.60;50.20;20.60;94547.00;;;;10349110;28;45674;-65
2022/05/26 17:43:10;;;;;;;1.58;0.45;;;18.60;50.30;20.60;94537.00;;;;10353388;28;45154;-62
2022/05/26 17:48:30;;;;;;;1.15;0.13;;;18.60;50.20;20.70;94538.00;;;;10351230;28;45400;-63
2022/05/26 17:53:53;;;;;;;1.15;0.30;;;18.60;50.40;20.70;94539.00;;;;10352762;28;45162;-63
2022/05/26 17:59:16;;;;;;;0.90;0.30;;;18.60;50.20;20.60;94542.00;;;;10352179;28;45175;-62
2022/05/26 18:04:37;;;;;;;0.40;0.20;;;18.50;50.10;20.60;94535.00;;;;10352708;28;45182;-64
2022/05/26 18:09:58;;;;;;;1.65;0.40;;;18.50;50.00;20.60;94540.00;;;;10357095;28;45927;-64
2022/05/26 18:15:20;;;;;;;0.65;0.20;;;18.50;50.20;20.50;94533.00;;;;10354496;28;45746;-64
2022/05/26 18:20:41;;;;;;;1.15;0.30;;;18.40;50.20;20.50;94538.00;;;;10357117;28;45245;-64
2022/05/26 18:26:03;;;;;;;0.85;0.40;;;18.40;50.20;20.50;94542.00;;;;10355706;28;45319;-64
2022/05/26 18:31:28;;;;;;;1.60;0.38;;;18.30;50.10;20.40;94542.00;;;;10346216;28;46042;-65
2022/05/26 18:36:50;;;;;;;0.70;0.30;;;18.30;50.20;20.40;94547.00;;;;10333690;28;45332;-64
2022/05/26 18:42:12;;;;;;;1.42;0.20;;;18.30;50.20;20.40;94546.00;;;;10317623;28;45543;-65
2022/05/26 18:47:43;;;;;;;0.50;0.20;;;18.30;50.20;20.40;94549.00;;;;10317035;28;45117;-63
2022/05/26 18:53:06;;;;;;;0.60;0.20;;;18.20;50.20;20.30;94549.00;;;;10317021;28;45683;-63
2022/05/26 18:58:29;;;;;;;0.45;0.17;;;18.20;50.30;20.30;94543.00;;;;10316605;28;45719;-63
2022/05/26 19:03:49;;;;;;;1.00;0.32;;;18.20;50.30;20.30;94562.00;;;;10339215;28;45460;-63
2022/05/26 19:09:10;;;;;;;1.02;0.38;;;18.10;50.30;20.30;94555.00;;;;10357249;28;45205;-64
2022/05/26 19:14:36;;;;;;;1.80;0.32;;;18.10;50.30;20.20;94561.00;;;;10358061;28;45101;-63
2022/05/26 19:19:57;;;;;;;0.55;0.10;;;18.10;50.40;20.20;94568.00;;;;10356865;28;45231;-63
2022/05/26 19:25:18;;;;;;;0.70;0.22;;;18.10;50.40;20.20;94581.00;;;;10357738;28;45221;-63
2022/05/26 19:30:50;;;;;;;0.70;0.20;;;18.00;50.40;20.20;94565.00;;;;10356833;28;45240;-63
2022/05/26 19:36:11;;;;;;;0.63;0.10;;;18.00;50.40;20.10;94571.00;;;;10351453;28;45146;-64
2022/05/26 19:41:32;;;;;;;1.08;0.38;;;18.00;50.40;20.10;94591.00;;;;10356207;28;46094;-64
2022/05/26 19:46:57;;;;;;;0.60;0.25;;;18.00;50.50;20.10;94601.00;;;;10356726;28;45115;-64
2022/05/26 19:52:19;;;;;;;0.20;0.20;;;18.00;50.50;20.10;94609.00;;;;10356487;28;45173;-64
2022/05/26 19:57:40;;;;;;;0.32;0.10;;;17.90;50.50;20.10;94599.00;;;;10355787;28;45238;-63
2022/05/26 20:03:04;;;;;;;0.50;0.15;;;17.90;50.50;20.10;94621.00;;;;10356141;28;45243;-64
2022/05/26 20:08:25;;;;;;;0.25;0.20;;;17.90;50.50;20.10;94615.00;;;;10355800;28;45112;-63
2022/05/26 20:13:46;;;;;;;0.75;0.10;;;17.90;50.50;20.00;94626.00;;;;10356051;28;45175;-63
2022/05/26 20:19:09;;;;;;;0.88;0.20;;;17.90;50.50;20.00;94631.00;;;;10355104;28;45538;-63
2022/05/26 20:24:29;;;;;;;0.35;0.20;;;17.90;50.50;20.00;94627.00;;;;10355681;28;45354;-63
2022/05/26 20:29:50;;;;;;;0.63;0.20;;;17.90;50.50;20.00;94630.00;;;;10353880;28;45065;-63
2022/05/26 20:35:12;;;;;;;0.30;0.13;;;17.90;50.50;20.00;94641.00;;;;10355057;28;45198;-64
2022/05/26 20:40:33;;;;;;;0.95;0.20;;;17.80;50.50;19.90;94650.00;;;;10354579;28;45181;-63
2022/05/26 20:45:54;;;;;;;0.90;0.30;;;17.80;50.50;19.90;94651.00;;;;10353922;28;45118;-64
2022/05/26 20:51:16;;;;;;;0.28;0.28;;;17.80;50.50;19.90;94644.00;;;;10354257;28;45247;-64
2022/05/26 20:56:37;;;;;;;0.20;0.20;;;17.80;50.50;19.90;94637.00;;;;10354134;28;45220;-63
2022/05/26 21:01:57;;;;;;;0.38;0.20;;;17.80;50.50;19.90;94654.00;;;;10352653;28;45312;-63
2022/05/26 21:07:20;;;;;;;0.28;0.10;;;17.80;50.50;19.90;94650.00;;;;10348901;28;45214;-63
2022/05/26 21:12:41;;;;;;;0.50;0.08;;;17.70;50.50;19.90;94653.00;;;;10353905;28;45905;-63
2022/05/26 21:18:01;;;;;;;0.28;0.10;;;17.70;50.50;19.90;94639.00;;;;10353792;28;45890;-63
2022/05/26 21:23:23;;;;;;;0.20;0.10;;;17.70;50.50;19.80;94639.00;;;;10354085;28;45192;-63
2022/05/26 21:28:45;;;;;;;0.35;0.20;;;17.70;50.50;19.80;94645.00;;;;10353200;28;45118;-63
2022/05/26 21:34:06;;;;;;;0.43;0.13;;;17.70;50.50;19.80;94644.00;;;;10353541;28;45331;-63
2022/05/26 21:39:28;;;;;;;0.10;0.10;;;17.70;50.60;19.80;94637.00;;;;10352884;28;45148;-63
2022/05/26 21:44:49;;;;;;;0.10;0.10;;;17.70;50.60;19.80;94639.00;;;;10359503;28;45179;-63
2022/05/26 21:50:09;;;;;;;0.32;0.10;;;17.70;50.60;19.80;94643.00;;;;10359831;28;45755;-63
2022/05/26 21:55:32;;;;;;;0.10;0.10;;;17.70;50.60;19.80;94643.00;;;;10360212;28;45214;-63
2022/05/26 22:01:07;;;;;;;0.05;0.00;;;17.70;50.60;19.80;94645.00;;;;10360174;28;46122;-63
2022/05/26 22:12:09;;;;;;;0.40;0.10;;;17.60;50.60;19.70;94649.00;;;;10359492;28;45339;-63
2022/05/26 22:17:30;;;;;;;0.35;0.10;;;17.60;50.60;19.70;94643.00;;;;10358862;28;45249;-63
2022/05/26 22:22:50;;;;;;;0.73;0.10;;;17.60;50.60;19.70;94643.00;;;;10359441;28;45183;-63
2022/05/26 22:28:12;;;;;;;0.52;0.20;;;17.60;50.60;19.70;94639.00;;;;10358872;28;45158;-63
2022/05/26 22:33:33;;;;;;;0.10;0.10;;;17.60;50.60;19.70;94631.00;;;;10358864;28;45179;-63
2022/05/26 22:38:54;;;;;;;0.32;0.10;;;17.60;50.60;19.70;94627.00;;;;10357989;28;45143;-63
2022/05/26 22:44:17;;;;;;;0.20;0.10;;;17.60;50.60;19.70;94614.00;;;;10358709;28;45829;-63
2022/05/26 22:49:39;;;;;;;0.20;0.10;;;17.60;50.60;19.70;94626.00;;;;10357712;28;45962;-63
2022/05/26 22:54:59;;;;;;;0.08;0.08;;;17.60;50.60;19.70;94631.00;;;;10357555;28;45170;-63
2022/05/26 23:00:24;;;;;;;0.50;0.10;;;17.50;50.60;19.60;94614.00;;;;10357653;28;45197;-63
2022/05/26 23:05:44;;;;;;;0.10;0.10;;;17.50;50.60;19.60;94611.00;;;;10357820;28;45116;-63
2022/05/26 23:11:06;;;;;;;0.35;0.10;;;17.60;50.60;19.60;94599.00;;;;10357571;28;45138;-63
2022/05/26 23:16:29;;;;;;;0.35;0.10;;;17.50;50.60;19.60;94596.00;;;;10357325;28;45188;-63
2022/05/26 23:21:49;;;;;;;0.20;0.10;;;17.50;50.60;19.60;94594.00;;;;10357483;28;45734;-62
2022/05/26 23:27:10;;;;;;;0.17;0.10;;;17.50;50.60;19.60;94585.00;;;;10356977;28;45823;-63
2022/05/26 23:32:32;;;;;;;0.10;0.10;;;17.50;50.60;19.60;94581.00;;;;10357258;28;45161;-62
2022/05/26 23:37:54;;;;;;;0.17;0.10;;;17.50;50.50;19.60;94575.00;;;;10356333;28;45187;-63
2022/05/26 23:43:22;;;;;;;0.40;0.10;;;17.50;50.50;19.60;94549.00;;;;10356784;28;45924;-63
2022/05/26 23:48:45;;;;;;;0.85;0.30;;;17.50;50.50;19.60;94550.00;;;;10355719;28;47349;-63
2022/05/26 23:54:06;;;;;;;0.10;0.10;;;17.50;50.60;19.60;94561.00;;;;10356484;28;45179;-63
2022/05/26 23:59:26;;;;;;;0.25;0.20;;;17.50;50.60;19.50;94562.00;;;;10356007;28;46122;-63
